createdAt,value
2022-08-25T00:02:08.963Z,100.00
2022-08-25T00:04:37.191Z,100.00
2022-08-25T00:07:06.062Z,100.00
2022-08-25T00:09:34.340Z,100.00
2022-08-25T00:12:02.345Z,100.00
2022-08-25T00:14:33.843Z,100.00
2022-08-25T00:17:01.389Z,100.00
2022-08-25T00:19:32.637Z,100.00
2022-08-25T00:22:01.017Z,100.00
2022-08-25T00:24:28.237Z,100.00
2022-08-25T00:26:58.412Z,100.00
2022-08-25T00:29:29.604Z,100.00
2022-08-25T00:31:58.301Z,100.00
2022-08-25T00:34:30.444Z,100.00
2022-08-25T00:36:57.595Z,100.00
2022-08-25T00:39:24.995Z,100.00
2022-08-25T00:41:54.381Z,100.00
2022-08-25T00:44:21.233Z,100.00
2022-08-25T00:46:53.988Z,100.00
2022-08-25T00:49:38.764Z,100.00
2022-08-25T00:52:22.469Z,100.00
2022-08-25T00:55:01.902Z,100.00
2022-08-25T00:57:36.446Z,100.00
2022-08-25T01:00:13.256Z,100.00
2022-08-25T01:02:40.311Z,100.00
2022-08-25T01:05:08.914Z,100.00
2022-08-25T01:07:36.932Z,100.00
2022-08-25T01:10:07.696Z,100.00
2022-08-25T01:12:36.493Z,100.00
2022-08-25T01:15:06.285Z,100.00
2022-08-25T01:17:54.503Z,100.00
2022-08-25T01:20:23.794Z,100.00
2022-08-25T01:22:57.446Z,100.00
2022-08-25T01:26:01.936Z,100.00
2022-08-25T01:28:28.755Z,100.00
2022-08-25T01:30:56.018Z,100.00
2022-08-25T01:33:23.396Z,100.00
2022-08-25T01:35:50.245Z,100.00
2022-08-25T01:38:17.340Z,100.00
2022-08-25T01:40:44.370Z,100.00
2022-08-25T01:43:11.732Z,100.00
2022-08-25T01:45:41.845Z,100.00
2022-08-25T01:48:09.741Z,100.00
2022-08-25T01:50:37.146Z,100.00
2022-08-25T01:53:03.921Z,100.00
2022-08-25T01:55:51.380Z,100.00
2022-08-25T01:58:20.282Z,100.00
2022-08-25T02:00:49.090Z,100.00
2022-08-25T02:03:20.883Z,100.00
2022-08-25T02:05:49.185Z,100.00
2022-08-25T02:08:16.077Z,100.00
2022-08-25T02:10:42.919Z,100.00
2022-08-25T02:13:10.177Z,100.00
2022-08-25T02:15:46.470Z,100.00
2022-08-25T02:18:14.245Z,100.00
2022-08-25T02:20:41.700Z,100.00
2022-08-25T02:23:08.557Z,100.00
2022-08-25T02:25:36.890Z,100.00
2022-08-25T02:28:04.265Z,100.00
2022-08-25T02:30:31.392Z,100.00
2022-08-25T02:32:59.657Z,100.00
2022-08-25T02:35:26.757Z,100.00
2022-08-25T02:37:54.544Z,100.00
2022-08-25T02:40:21.903Z,100.00
2022-08-25T02:42:49.908Z,100.00
2022-08-25T02:45:17.169Z,100.00
2022-08-25T02:47:44.598Z,100.00
2022-08-25T02:50:11.878Z,100.00
2022-08-25T02:52:40.155Z,100.00
2022-08-25T02:55:11.409Z,100.00
2022-08-25T02:57:38.183Z,100.00
2022-08-25T03:00:06.398Z,100.00
2022-08-25T03:02:33.775Z,100.00
2022-08-25T03:05:00.872Z,100.00
2022-08-25T03:07:27.810Z,100.00
2022-08-25T03:09:56.828Z,100.00
2022-08-25T03:12:23.693Z,100.00
2022-08-25T03:14:50.469Z,100.00
2022-08-25T03:17:17.733Z,100.00
2022-08-25T03:19:44.567Z,100.00
2022-08-25T03:22:11.330Z,100.00
2022-08-25T03:24:38.120Z,100.00
2022-08-25T03:27:05.439Z,100.00
2022-08-25T03:29:33.361Z,100.00
2022-08-25T03:32:01.231Z,100.00
2022-08-25T03:34:30.201Z,100.00
2022-08-25T03:36:58.306Z,100.00
2022-08-25T03:39:26.568Z,100.00
2022-08-25T03:41:53.936Z,100.00
2022-08-25T03:44:21.709Z,100.00
2022-08-25T03:46:52.054Z,100.00
2022-08-25T03:49:23.717Z,100.00
2022-08-25T03:51:52.756Z,100.00
2022-08-25T03:54:23.856Z,100.00
2022-08-25T03:56:50.669Z,100.00
2022-08-25T03:59:18.946Z,100.00
2022-08-25T04:01:51.360Z,100.00
2022-08-25T04:04:20.950Z,100.00
2022-08-25T04:06:47.757Z,100.00
2022-08-25T04:09:14.633Z,100.00
2022-08-25T04:11:42.588Z,100.00
2022-08-25T04:14:09.855Z,100.00
2022-08-25T04:16:43.269Z,100.00
2022-08-25T04:19:10.363Z,100.00
2022-08-25T04:21:39.006Z,100.00
2022-08-25T04:24:08.027Z,100.00
2022-08-25T04:26:44.734Z,100.00
2022-08-25T04:29:13.639Z,100.00
2022-08-25T04:31:43.001Z,100.00
2022-08-25T04:34:17.687Z,100.00
2022-08-25T04:37:03.706Z,100.00
2022-08-25T04:39:31.135Z,100.00
2022-08-25T04:41:58.706Z,100.00
2022-08-25T04:44:25.567Z,100.00
2022-08-25T04:46:52.353Z,100.00
2022-08-25T04:49:19.496Z,100.00
2022-08-25T04:51:46.529Z,100.00
2022-08-25T04:54:17.078Z,100.00
2022-08-25T04:56:45.297Z,100.00
2022-08-25T04:59:13.884Z,100.00
2022-08-25T05:01:42.765Z,100.00
2022-08-25T05:04:14.634Z,100.00
2022-08-25T05:06:55.001Z,100.00
2022-08-25T05:09:21.873Z,100.00
2022-08-25T05:11:50.109Z,100.00
2022-08-25T05:14:21.590Z,100.00
2022-08-25T05:16:52.442Z,100.00
2022-08-25T05:19:19.521Z,100.00
2022-08-25T05:21:46.354Z,100.00
2022-08-25T05:24:13.120Z,100.00
2022-08-25T05:26:39.960Z,100.00
2022-08-25T05:29:06.966Z,100.00
2022-08-25T05:31:36.432Z,100.00
2022-08-25T05:34:10.366Z,100.00
2022-08-25T05:36:38.485Z,100.00
2022-08-25T05:39:05.518Z,100.00
2022-08-25T05:41:33.503Z,100.00
2022-08-25T05:44:00.389Z,100.00
2022-08-25T05:46:27.295Z,100.00
2022-08-25T05:48:58.920Z,100.00
2022-08-25T05:51:26.871Z,100.00
2022-08-25T05:53:54.145Z,100.00
2022-08-25T05:56:21.495Z,100.00
2022-08-25T05:58:48.840Z,100.00
2022-08-25T06:01:48.195Z,100.00
2022-08-25T06:04:18.280Z,100.00
2022-08-25T06:06:45.141Z,100.00
2022-08-25T06:09:12.304Z,100.00
2022-08-25T06:11:40.388Z,100.00
2022-08-25T06:14:09.769Z,100.00
2022-08-25T06:16:37.501Z,100.00
2022-08-25T06:19:04.825Z,100.00
2022-08-25T06:21:31.660Z,100.00
2022-08-25T06:23:58.522Z,100.00
2022-08-25T06:26:25.685Z,100.00
2022-08-25T06:28:53.290Z,100.00
2022-08-25T06:31:22.425Z,100.00
2022-08-25T06:33:50.344Z,100.00
2022-08-25T06:36:17.263Z,100.00
2022-08-25T06:38:44.073Z,100.00
2022-08-25T06:41:10.953Z,100.00
2022-08-25T06:43:38.150Z,100.00
2022-08-25T06:46:09.266Z,100.00
2022-08-25T06:48:36.120Z,100.00
2022-08-25T06:51:10.647Z,100.00
2022-08-25T06:53:41.727Z,100.00
2022-08-25T06:56:09.740Z,100.00
2022-08-25T06:58:36.879Z,100.00
2022-08-25T07:01:15.707Z,100.00
2022-08-25T07:03:46.639Z,100.00
2022-08-25T07:06:14.932Z,100.00
2022-08-25T07:08:46.670Z,100.00
2022-08-25T07:11:18.270Z,100.00
2022-08-25T07:13:45.984Z,100.00
2022-08-25T07:16:15.526Z,100.00
2022-08-25T07:18:44.202Z,100.00
2022-08-25T07:21:12.786Z,100.00
2022-08-25T07:23:43.402Z,100.00
2022-08-25T07:26:27.133Z,100.00
2022-08-25T07:28:59.809Z,100.00
2022-08-25T07:31:29.716Z,100.00
2022-08-25T07:34:16.283Z,100.00
2022-08-25T07:36:44.150Z,100.00
2022-08-25T07:39:11.557Z,100.00
2022-08-25T07:41:41.228Z,100.00
2022-08-25T07:44:10.970Z,100.00
2022-08-25T07:46:38.314Z,100.00
2022-08-25T07:49:16.471Z,100.00
2022-08-25T07:52:04.322Z,100.00
2022-08-25T07:54:33.920Z,100.00
2022-08-25T07:57:03.678Z,100.00
2022-08-25T07:59:31.175Z,100.00
2022-08-25T08:02:17.836Z,100.00
2022-08-25T08:04:50.536Z,100.00
2022-08-25T08:07:23.144Z,100.00
2022-08-25T08:10:05.299Z,100.00
2022-08-25T08:12:38.197Z,100.00
2022-08-25T08:15:10.087Z,88.98
2022-08-25T08:17:38.951Z,80.86
2022-08-25T08:20:09.020Z,81.18
2022-08-25T08:22:37.196Z,77.53
2022-08-25T08:25:04.775Z,74.75
2022-08-25T08:27:37.390Z,74.14
2022-08-25T08:30:06.342Z,72.64
2022-08-25T08:32:53.291Z,69.04
2022-08-25T08:35:19.998Z,70.56
2022-08-25T08:37:46.934Z,70.31
2022-08-25T08:40:20.997Z,69.55
2022-08-25T08:43:18.557Z,67.96
2022-08-25T08:45:52.002Z,66.81
2022-08-25T08:48:28.525Z,69.89
2022-08-25T08:51:23.170Z,69.07
2022-08-25T08:53:57.248Z,68.48
2022-08-25T08:56:35.018Z,66.37
2022-08-25T08:59:09.213Z,65.04
2022-08-25T09:01:46.903Z,66.98
2022-08-25T09:04:29.564Z,64.59
2022-08-25T09:06:59.902Z,62.76
2022-08-25T09:09:35.734Z,65.56
2022-08-25T09:12:27.856Z,62.35
2022-08-25T09:15:12.969Z,62.96
2022-08-25T09:17:43.409Z,63.48
2022-08-25T09:20:43.034Z,63.57
2022-08-25T09:24:00.915Z,60.86
2022-08-25T09:26:43.305Z,61.58
2022-08-25T09:29:16.626Z,62.68
2022-08-25T09:31:44.867Z,62.66
2022-08-25T09:34:28.451Z,63.10
2022-08-25T09:36:55.239Z,64.14
2022-08-25T09:39:23.903Z,64.30
2022-08-25T09:41:56.707Z,64.38
2022-08-25T09:44:32.281Z,62.30
2022-08-25T09:47:05.464Z,61.44
2022-08-25T09:49:44.036Z,61.32
2022-08-25T09:52:34.529Z,61.10
2022-08-25T09:55:16.170Z,60.54
2022-08-25T09:57:42.989Z,61.14
2022-08-25T10:00:21.668Z,60.31
2022-08-25T10:03:06.450Z,59.97
2022-08-25T10:05:40.034Z,57.72
2022-08-25T10:08:24.650Z,56.52
2022-08-25T10:10:58.302Z,57.83
2022-08-25T10:13:49.360Z,55.10
2022-08-25T10:16:30.848Z,55.79
2022-08-25T10:19:08.823Z,54.07
2022-08-25T10:21:39.303Z,53.32
2022-08-25T10:24:08.616Z,55.54
2022-08-25T10:26:48.572Z,57.16
2022-08-25T10:29:21.452Z,57.15
2022-08-25T10:31:56.206Z,54.87
2022-08-25T10:34:44.439Z,54.07
2022-08-25T10:37:59.234Z,54.08
2022-08-25T10:40:33.624Z,52.97
2022-08-25T10:43:19.102Z,48.76
2022-08-25T10:45:52.627Z,47.03
2022-08-25T10:48:35.145Z,45.41
2022-08-25T10:51:36.277Z,45.87
2022-08-25T10:54:04.251Z,46.77
2022-08-25T10:56:40.237Z,45.64
2022-08-25T10:59:21.166Z,43.73
2022-08-25T11:02:03.389Z,44.42
2022-08-25T11:04:43.610Z,43.06
2022-08-25T11:07:19.676Z,43.86
2022-08-25T11:09:51.125Z,44.23
2022-08-25T11:12:23.986Z,45.08
2022-08-25T11:14:58.450Z,44.66
2022-08-25T11:17:28.951Z,42.38
2022-08-25T11:20:01.561Z,43.11
2022-08-25T11:22:59.167Z,42.62
2022-08-25T11:25:35.120Z,42.01
2022-08-25T11:28:30.807Z,41.17
2022-08-25T11:31:00.767Z,42.40
2022-08-25T11:33:30.571Z,41.92
2022-08-25T11:36:05.607Z,42.54
2022-08-25T11:39:05.287Z,40.76
2022-08-25T11:41:49.941Z,39.53
2022-08-25T11:44:20.136Z,41.10
2022-08-25T11:47:21.165Z,40.46
2022-08-25T11:49:53.324Z,39.58
2022-08-25T11:52:38.467Z,39.42
2022-08-25T11:55:23.364Z,39.79
2022-08-25T11:57:53.611Z,38.53
2022-08-25T12:00:20.575Z,37.39
2022-08-25T12:02:50.850Z,35.64
2022-08-25T12:05:17.637Z,36.36
2022-08-25T12:07:47.627Z,36.95
2022-08-25T12:10:19.466Z,37.62
2022-08-25T12:12:46.554Z,37.62
2022-08-25T12:15:24.596Z,37.25
2022-08-25T12:18:12.929Z,35.88
2022-08-25T12:20:55.978Z,37.15
2022-08-25T12:23:34.054Z,35.43
2022-08-25T12:26:18.842Z,35.36
2022-08-25T12:28:51.610Z,33.20
2022-08-25T12:31:30.123Z,34.48
2022-08-25T12:34:08.423Z,35.01
2022-08-25T12:36:39.643Z,35.71
2022-08-25T12:39:24.567Z,36.81
2022-08-25T12:42:32.615Z,37.29
2022-08-25T12:45:34.177Z,38.45
2022-08-25T12:48:28.838Z,38.54
2022-08-25T12:51:07.558Z,37.52
2022-08-25T12:53:39.160Z,37.99
2022-08-25T12:56:23.439Z,37.10
2022-08-25T12:59:02.974Z,36.64
2022-08-25T13:01:56.763Z,37.70
2022-08-25T13:05:17.630Z,38.44
2022-08-25T13:07:56.096Z,38.94
2022-08-25T13:10:48.424Z,38.07
2022-08-25T13:13:33.817Z,36.85
2022-08-25T13:16:10.107Z,38.51
2022-08-25T13:18:39.165Z,39.21
2022-08-25T13:21:17.585Z,39.92
2022-08-25T13:23:48.548Z,40.58
2022-08-25T13:26:23.473Z,40.55
2022-08-25T13:28:59.805Z,40.18
2022-08-25T13:31:29.659Z,39.00
2022-08-25T13:34:02.292Z,39.51
2022-08-25T13:36:55.410Z,38.75
2022-08-25T13:39:52.648Z,39.97
2022-08-25T13:42:16.491Z,39.02
2022-08-25T13:44:52.396Z,38.98
2022-08-25T13:47:44.988Z,39.77
2022-08-25T13:50:28.822Z,39.41
2022-08-25T13:53:11.549Z,37.63
2022-08-25T13:56:02.251Z,36.26
2022-08-25T13:58:44.343Z,36.10
2022-08-25T14:01:22.696Z,36.32
2022-08-25T14:04:33.114Z,37.71
2022-08-25T14:07:13.422Z,39.09
2022-08-25T14:09:48.489Z,38.50
2022-08-25T14:12:46.397Z,39.63
2022-08-25T14:15:22.147Z,39.74
2022-08-25T14:18:01.957Z,39.25
2022-08-25T14:20:31.876Z,40.87
2022-08-25T14:23:16.265Z,41.77
2022-08-25T14:25:47.346Z,41.20
2022-08-25T14:28:18.794Z,41.61
2022-08-25T14:30:59.852Z,41.97
2022-08-25T14:33:33.135Z,42.32
2022-08-25T14:36:02.870Z,42.74
2022-08-25T14:38:29.678Z,43.33
2022-08-25T14:40:59.278Z,44.81
2022-08-25T14:43:31.491Z,44.32
2022-08-25T14:46:02.509Z,44.80
2022-08-25T14:48:35.633Z,44.64
2022-08-25T14:51:04.294Z,44.06
2022-08-25T14:53:32.113Z,42.50
2022-08-25T14:55:59.499Z,39.99
2022-08-25T14:58:27.063Z,39.77
2022-08-25T15:00:54.284Z,40.53
2022-08-25T15:03:44.472Z,40.47
2022-08-25T15:06:16.658Z,40.02
2022-08-25T15:09:02.879Z,39.80
2022-08-25T15:11:31.770Z,39.26
2022-08-25T15:14:02.363Z,39.42
2022-08-25T15:16:35.485Z,38.59
2022-08-25T15:19:06.660Z,36.60
2022-08-25T15:21:35.629Z,36.17
2022-08-25T15:24:03.793Z,37.24
2022-08-25T15:26:31.329Z,36.26
2022-08-25T15:28:59.468Z,35.40
2022-08-25T15:31:26.848Z,33.64
2022-08-25T15:33:53.789Z,32.97
2022-08-25T15:36:24.842Z,34.11
2022-08-25T15:38:52.640Z,35.15
2022-08-25T15:41:21.017Z,34.77
2022-08-25T15:43:51.588Z,34.14
2022-08-25T15:46:21.927Z,34.76
2022-08-25T15:48:48.779Z,34.17
2022-08-25T15:51:17.745Z,33.98
2022-08-25T15:53:45.675Z,34.40
2022-08-25T15:56:26.818Z,34.80
2022-08-25T15:58:55.587Z,34.84
2022-08-25T16:01:26.744Z,36.03
2022-08-25T16:03:54.104Z,36.53
2022-08-25T16:06:21.573Z,36.61
2022-08-25T16:08:48.832Z,36.79
2022-08-25T16:11:18.829Z,36.63
2022-08-25T16:13:47.639Z,37.01
2022-08-25T16:16:16.710Z,36.57
2022-08-25T16:18:44.622Z,36.68
2022-08-25T16:21:14.147Z,37.24
2022-08-25T16:23:41.673Z,37.74
2022-08-25T16:26:11.078Z,37.91
2022-08-25T16:28:43.899Z,38.29
2022-08-25T16:31:13.181Z,38.75
2022-08-25T16:36:15.909Z,38.42
2022-08-25T16:38:48.887Z,39.49
2022-08-25T16:41:20.703Z,39.96
2022-08-25T16:43:47.662Z,41.45
2022-08-25T16:46:17.423Z,41.82
2022-08-25T16:48:44.934Z,42.05
2022-08-25T16:51:14.736Z,43.92
2022-08-25T16:54:00.577Z,45.31
2022-08-25T16:56:28.423Z,44.64
2022-08-25T16:58:58.448Z,46.22
2022-08-25T17:01:26.660Z,49.05
2022-08-25T17:03:55.823Z,49.90
2022-08-25T17:06:25.212Z,49.42
2022-08-25T17:08:52.689Z,51.23
2022-08-25T17:11:27.215Z,52.42
2022-08-25T17:13:57.236Z,53.76
2022-08-25T17:16:27.975Z,54.04
2022-08-25T17:18:55.857Z,54.25
2022-08-25T17:21:24.820Z,54.99
2022-08-25T17:23:53.267Z,55.37
2022-08-25T17:26:20.328Z,56.35
2022-08-25T17:28:55.190Z,56.43
2022-08-25T17:31:23.081Z,57.23
2022-08-25T17:33:52.370Z,57.49
2022-08-25T17:36:19.859Z,58.31
2022-08-25T17:38:56.901Z,58.91
2022-08-25T17:41:24.195Z,59.35
2022-08-25T17:43:51.047Z,59.42
2022-08-25T17:46:18.232Z,60.07
2022-08-25T17:48:45.253Z,60.81
2022-08-25T17:51:12.386Z,60.86
2022-08-25T17:53:39.275Z,63.50
2022-08-25T17:56:09.832Z,63.10
2022-08-25T17:58:37.489Z,63.21
2022-08-25T18:01:05.455Z,64.47
2022-08-25T18:03:33.270Z,64.79
2022-08-25T18:06:00.526Z,65.14
2022-08-25T18:08:34.883Z,66.19
2022-08-25T18:11:04.715Z,67.78
2022-08-25T18:13:31.743Z,68.48
2022-08-25T18:15:59.131Z,68.43
2022-08-25T18:18:27.309Z,69.13
2022-08-25T18:20:54.116Z,68.58
2022-08-25T18:23:21.124Z,69.90
2022-08-25T18:25:49.112Z,69.96
2022-08-25T18:28:16.351Z,70.44
2022-08-25T18:30:43.868Z,73.20
2022-08-25T18:33:12.093Z,73.49
2022-08-25T18:35:39.048Z,74.82
2022-08-25T18:38:25.685Z,75.32
2022-08-25T18:41:00.625Z,75.23
2022-08-25T18:43:31.906Z,76.38
2022-08-25T18:46:04.161Z,77.32
2022-08-25T18:48:32.306Z,77.68
2022-08-25T18:51:01.033Z,79.92
2022-08-25T18:53:30.713Z,80.50
2022-08-25T18:56:04.521Z,81.46
2022-08-25T18:58:31.744Z,79.89
2022-08-25T19:01:00.871Z,82.71
2022-08-25T19:03:29.707Z,82.64
2022-08-25T19:05:57.867Z,83.27
2022-08-25T19:08:24.979Z,84.34
2022-08-25T19:10:54.301Z,85.44
2022-08-25T19:13:22.679Z,85.31
2022-08-25T19:15:51.321Z,85.19
2022-08-25T19:18:26.231Z,85.88
2022-08-25T19:20:56.479Z,86.52
2022-08-25T19:23:23.478Z,88.03
2022-08-25T19:25:50.321Z,87.67
2022-08-25T19:28:17.234Z,89.12
2022-08-25T19:30:49.887Z,88.34
2022-08-25T19:33:42.353Z,87.34
2022-08-25T19:36:08.639Z,87.83
2022-08-25T19:38:37.572Z,87.93
2022-08-25T19:41:09.056Z,88.59
2022-08-25T19:43:56.781Z,89.48
2022-08-25T19:46:33.280Z,89.33
2022-08-25T19:49:08.760Z,89.36
2022-08-25T19:51:56.864Z,90.03
2022-08-25T19:54:35.553Z,89.12
2022-08-25T19:57:06.291Z,89.31
2022-08-25T19:59:42.633Z,90.75
2022-08-25T20:02:17.014Z,92.46
2022-08-25T20:04:49.649Z,93.04
2022-08-25T20:07:23.847Z,92.98
2022-08-25T20:09:52.371Z,94.68
2022-08-25T20:12:20.504Z,96.93
2022-08-25T20:14:49.121Z,96.54
2022-08-25T20:17:23.732Z,96.95
2022-08-25T20:19:57.187Z,98.05
2022-08-25T20:22:27.144Z,98.42
2022-08-25T20:25:04.010Z,99.29
2022-08-25T20:27:47.870Z,100.00
2022-08-25T20:30:16.791Z,100.00
2022-08-25T20:32:45.347Z,100.00
2022-08-25T20:35:14.421Z,100.00
2022-08-25T20:37:44.465Z,100.00
2022-08-25T20:40:14.521Z,100.00
2022-08-25T20:42:43.477Z,100.00
2022-08-25T20:45:12.837Z,100.00
2022-08-25T20:47:39.669Z,100.00
2022-08-25T20:50:09.293Z,100.00
2022-08-25T20:52:37.394Z,100.00
2022-08-25T20:55:10.062Z,100.00
2022-08-25T20:57:37.075Z,100.00
2022-08-25T21:00:04.910Z,100.00
2022-08-25T21:02:31.812Z,100.00
2022-08-25T21:04:58.667Z,100.00
2022-08-25T21:07:26.100Z,100.00
2022-08-25T21:09:55.064Z,100.00
2022-08-25T21:12:22.036Z,100.00
2022-08-25T21:14:49.068Z,100.00
2022-08-25T21:17:19.231Z,100.00
2022-08-25T21:22:18.562Z,100.00
2022-08-25T21:24:46.004Z,100.00
2022-08-25T21:27:13.125Z,100.00
2022-08-25T21:29:44.632Z,100.00
2022-08-25T21:32:22.225Z,100.00
2022-08-25T21:34:53.976Z,100.00
2022-08-25T21:37:21.490Z,100.00
2022-08-25T21:39:48.412Z,100.00
2022-08-25T21:42:15.244Z,100.00
2022-08-25T21:44:42.321Z,100.00
2022-08-25T21:47:09.375Z,100.00
2022-08-25T21:49:37.288Z,100.00
2022-08-25T21:52:05.510Z,100.00
2022-08-25T21:54:32.664Z,100.00
2022-08-25T21:57:02.632Z,100.00
2022-08-25T21:59:36.112Z,100.00
2022-08-25T22:02:07.486Z,100.00
2022-08-25T22:04:34.642Z,100.00
2022-08-25T22:07:02.836Z,100.00
2022-08-25T22:09:30.628Z,100.00
2022-08-25T22:11:58.681Z,100.00
2022-08-25T22:14:27.244Z,100.00
2022-08-25T22:16:55.294Z,100.00
2022-08-25T22:19:23.041Z,100.00
2022-08-25T22:21:51.824Z,100.00
2022-08-25T22:24:19.495Z,100.00
2022-08-25T22:26:48.509Z,100.00
2022-08-25T22:29:25.009Z,100.00
2022-08-25T22:31:59.593Z,100.00
2022-08-25T22:34:32.854Z,100.00
2022-08-25T22:37:04.228Z,100.00
2022-08-25T22:39:34.255Z,100.00
2022-08-25T22:42:02.958Z,100.00
2022-08-25T22:44:30.042Z,100.00
2022-08-25T22:46:56.879Z,100.00
2022-08-25T22:49:23.724Z,100.00
2022-08-25T22:51:50.883Z,100.00
2022-08-25T22:54:18.052Z,100.00
2022-08-25T22:56:44.878Z,100.00
2022-08-25T22:59:13.220Z,100.00
2022-08-25T23:01:42.864Z,100.00
2022-08-25T23:04:10.715Z,100.00
2022-08-25T23:06:38.161Z,100.00
2022-08-25T23:09:08.315Z,100.00
2022-08-25T23:11:38.597Z,100.00
2022-08-25T23:14:08.367Z,100.00
2022-08-25T23:16:35.462Z,100.00
2022-08-25T23:19:02.400Z,100.00
2022-08-25T23:21:47.853Z,100.00
2022-08-25T23:24:29.224Z,100.00
2022-08-25T23:27:01.629Z,100.00
2022-08-25T23:29:30.144Z,100.00
2022-08-25T23:31:58.228Z,100.00
2022-08-25T23:34:25.770Z,100.00
2022-08-25T23:36:52.853Z,100.00
2022-08-25T23:39:21.619Z,100.00
2022-08-25T23:41:49.442Z,100.00
2022-08-25T23:44:17.513Z,100.00
2022-08-25T23:46:47.355Z,100.00
2022-08-25T23:49:18.547Z,100.00
2022-08-25T23:51:47.541Z,100.00
2022-08-25T23:54:15.903Z,100.00
2022-08-25T23:56:45.020Z,100.00
2022-08-25T23:59:24.903Z,100.00
